createdAt,value
2023-05-05T00:00:59.618Z,617.00
2023-05-05T00:01:59.594Z,618.00
2023-05-05T00:02:59.761Z,617.00
2023-05-05T00:03:59.645Z,614.00
2023-05-05T00:04:59.567Z,614.00
2023-05-05T00:05:59.537Z,618.00
2023-05-05T00:06:59.541Z,609.00
2023-05-05T00:07:59.518Z,611.00
2023-05-05T00:08:59.549Z,610.00
2023-05-05T00:09:59.541Z,620.00
2023-05-05T00:10:59.537Z,614.00
2023-05-05T00:11:59.521Z,613.00
2023-05-05T00:12:59.571Z,614.00
2023-05-05T00:13:59.478Z,607.00
2023-05-05T00:14:59.476Z,605.00
2023-05-05T00:15:59.476Z,607.00
2023-05-05T00:16:59.491Z,610.00
2023-05-05T00:17:59.526Z,614.00
2023-05-05T00:18:59.479Z,611.00
2023-05-05T00:19:59.470Z,612.00
2023-05-05T00:20:59.462Z,608.00
2023-05-05T00:21:59.430Z,609.00
2023-05-05T00:22:59.434Z,607.00
2023-05-05T00:23:59.429Z,605.00
2023-05-05T00:24:59.426Z,607.00
2023-05-05T00:25:59.444Z,608.00
2023-05-05T00:26:59.412Z,605.00
2023-05-05T00:27:59.379Z,604.00
2023-05-05T00:28:59.385Z,604.00
2023-05-05T00:29:59.384Z,610.00
2023-05-05T00:30:59.530Z,611.00
2023-05-05T00:31:59.389Z,608.00
2023-05-05T00:32:59.370Z,603.00
2023-05-05T00:33:59.383Z,602.00
2023-05-05T00:34:59.362Z,605.00
2023-05-05T00:35:59.332Z,604.00
2023-05-05T00:36:59.357Z,603.00
2023-05-05T00:37:59.373Z,603.00
2023-05-05T00:38:59.411Z,598.00
2023-05-05T00:39:59.415Z,602.00
2023-05-05T00:40:59.444Z,600.00
2023-05-05T00:41:59.515Z,606.00
2023-05-05T00:42:59.553Z,607.00
2023-05-05T00:43:59.508Z,602.00
2023-05-05T00:44:59.584Z,601.00
2023-05-05T00:45:59.676Z,602.00
2023-05-05T00:46:59.616Z,597.00
2023-05-05T00:47:59.701Z,604.00
2023-05-05T00:48:59.698Z,599.00
2023-05-05T00:49:59.700Z,602.00
2023-05-05T00:50:59.742Z,602.00
2023-05-05T00:51:59.751Z,598.00
2023-05-05T00:52:59.779Z,601.00
2023-05-05T00:53:59.835Z,601.00
2023-05-05T00:54:59.876Z,598.00
2023-05-05T00:55:59.917Z,596.00
2023-05-05T00:56:59.938Z,598.00
2023-05-05T00:57:59.973Z,594.00
2023-05-05T00:58:59.963Z,597.00
2023-05-05T00:59:59.994Z,596.00
2023-05-05T01:01:00.002Z,597.00
2023-05-05T01:02:00.053Z,595.00
2023-05-05T01:03:00.154Z,597.00
2023-05-05T01:04:00.183Z,597.00
2023-05-05T01:05:00.145Z,594.00
2023-05-05T01:06:00.144Z,593.00
2023-05-05T01:07:00.156Z,590.00
2023-05-05T01:08:00.188Z,588.00
2023-05-05T01:09:00.190Z,594.00
2023-05-05T01:10:15.153Z,594.00
2023-05-05T01:11:01.219Z,594.00
2023-05-05T01:12:00.188Z,595.00
2023-05-05T01:13:00.308Z,596.00
2023-05-05T01:14:00.183Z,593.00
2023-05-05T01:15:00.165Z,596.00
2023-05-05T01:16:00.182Z,595.00
2023-05-05T01:17:00.209Z,591.00
2023-05-05T01:18:00.292Z,595.00
2023-05-05T01:19:00.155Z,594.00
2023-05-05T01:20:00.204Z,596.00
2023-05-05T01:21:00.130Z,590.00
2023-05-05T01:22:00.171Z,593.00
2023-05-05T01:23:00.184Z,589.00
2023-05-05T01:24:00.216Z,585.00
2023-05-05T01:25:00.240Z,588.00
2023-05-05T01:26:00.264Z,590.00
2023-05-05T01:27:00.234Z,591.00
2023-05-05T01:28:00.298Z,587.00
2023-05-05T01:29:00.337Z,591.00
2023-05-05T01:30:00.368Z,592.00
2023-05-05T01:31:00.368Z,592.00
2023-05-05T01:32:00.548Z,593.00
2023-05-05T01:33:00.499Z,587.00
2023-05-05T01:34:00.472Z,590.00
2023-05-05T01:35:00.494Z,586.00
2023-05-05T01:36:00.584Z,588.00
2023-05-05T01:37:00.547Z,584.00
2023-05-05T01:38:00.591Z,587.00
2023-05-05T01:39:00.643Z,588.00
2023-05-05T01:40:00.646Z,585.00
2023-05-05T01:41:00.675Z,589.00
2023-05-05T01:42:00.690Z,585.00
2023-05-05T01:43:00.744Z,586.00
2023-05-05T01:44:00.737Z,585.00
2023-05-05T01:45:00.759Z,588.00
2023-05-05T01:46:00.831Z,584.00
2023-05-05T01:47:00.800Z,584.00
2023-05-05T01:48:00.934Z,586.00
2023-05-05T01:49:00.874Z,587.00
2023-05-05T01:50:00.884Z,587.00
2023-05-05T01:51:00.879Z,586.00
2023-05-05T01:52:00.906Z,582.00
2023-05-05T01:53:00.921Z,584.00
2023-05-05T01:54:01.733Z,584.00
2023-05-05T01:55:01.016Z,578.00
2023-05-05T01:56:01.018Z,577.00
2023-05-05T01:57:01.078Z,591.00
2023-05-05T01:58:01.052Z,586.00
2023-05-05T01:59:01.095Z,585.00
2023-05-05T02:00:01.138Z,581.00
2023-05-05T02:01:01.145Z,583.00
2023-05-05T02:02:01.265Z,581.00
2023-05-05T02:03:01.274Z,579.00
2023-05-05T02:04:01.221Z,582.00
2023-05-05T02:05:01.245Z,579.00
2023-05-05T02:06:01.276Z,576.00
2023-05-05T02:07:01.308Z,582.00
2023-05-05T02:08:01.342Z,589.00
2023-05-05T02:09:01.355Z,586.00
2023-05-05T02:10:01.373Z,581.00
2023-05-05T02:11:01.412Z,580.00
2023-05-05T02:12:01.447Z,576.00
2023-05-05T02:13:01.550Z,582.00
2023-05-05T02:14:01.555Z,578.00
2023-05-05T02:15:01.500Z,577.00
2023-05-05T02:16:01.589Z,576.00
2023-05-05T02:17:01.579Z,579.00
2023-05-05T02:18:01.694Z,576.00
2023-05-05T02:19:01.619Z,579.00
2023-05-05T02:20:01.647Z,575.00
2023-05-05T02:21:01.669Z,569.00
2023-05-05T02:22:01.674Z,574.00
2023-05-05T02:23:01.678Z,575.00
2023-05-05T02:24:01.736Z,580.00
2023-05-05T02:25:01.736Z,574.00
2023-05-05T02:26:01.797Z,576.00
2023-05-05T02:27:01.817Z,574.00
2023-05-05T02:28:01.849Z,575.00
2023-05-05T02:29:01.900Z,576.00
2023-05-05T02:30:01.905Z,574.00
2023-05-05T02:31:01.975Z,577.00
2023-05-05T02:32:01.983Z,571.00
2023-05-05T02:33:02.072Z,576.00
2023-05-05T02:34:02.026Z,581.00
2023-05-05T02:35:02.026Z,574.00
2023-05-05T02:36:02.065Z,573.00
2023-05-05T02:37:02.120Z,574.00
2023-05-05T02:38:02.118Z,572.00
2023-05-05T02:39:02.181Z,574.00
2023-05-05T02:40:02.223Z,574.00
2023-05-05T02:41:02.221Z,572.00
2023-05-05T02:42:02.257Z,578.00
2023-05-05T02:43:02.291Z,573.00
2023-05-05T02:44:02.345Z,571.00
2023-05-05T02:45:02.350Z,574.00
2023-05-05T02:46:02.408Z,569.00
2023-05-05T02:47:02.375Z,573.00
2023-05-05T02:48:02.429Z,576.00
2023-05-05T02:49:02.353Z,571.00
2023-05-05T02:50:02.384Z,565.00
2023-05-05T02:51:02.463Z,567.00
2023-05-05T02:52:02.470Z,571.00
2023-05-05T02:53:02.447Z,574.00
2023-05-05T02:54:02.446Z,572.00
2023-05-05T02:55:02.473Z,572.00
2023-05-05T02:56:02.487Z,572.00
2023-05-05T02:57:02.547Z,574.00
2023-05-05T02:58:02.547Z,571.00
2023-05-05T02:59:02.552Z,576.00
2023-05-05T03:00:02.576Z,572.00
2023-05-05T03:01:02.611Z,573.00
2023-05-05T03:02:02.598Z,574.00
2023-05-05T03:03:02.730Z,568.00
2023-05-05T03:04:02.686Z,570.00
2023-05-05T03:05:02.739Z,573.00
2023-05-05T03:06:02.742Z,562.00
2023-05-05T03:07:02.754Z,569.00
2023-05-05T03:08:02.795Z,569.00
2023-05-05T03:09:02.815Z,570.00
2023-05-05T03:10:02.806Z,572.00
2023-05-05T03:11:02.800Z,577.00
2023-05-05T03:12:02.764Z,569.00
2023-05-05T03:13:02.810Z,574.00
2023-05-05T03:14:02.837Z,566.00
2023-05-05T03:15:02.790Z,573.00
2023-05-05T03:16:02.852Z,566.00
2023-05-05T03:17:02.835Z,570.00
2023-05-05T03:18:02.833Z,567.00
2023-05-05T03:19:02.798Z,569.00
2023-05-05T03:20:03.930Z,572.00
2023-05-05T03:21:02.821Z,567.00
2023-05-05T03:22:02.850Z,569.00
2023-05-05T03:23:02.865Z,566.00
2023-05-05T03:24:02.900Z,565.00
2023-05-05T03:25:02.891Z,568.00
2023-05-05T03:26:02.911Z,566.00
2023-05-05T03:27:03.023Z,568.00
2023-05-05T03:28:02.962Z,572.00
2023-05-05T03:29:02.987Z,573.00
2023-05-05T03:30:02.997Z,565.00
2023-05-05T03:31:03.021Z,567.00
2023-05-05T03:32:03.112Z,572.00
2023-05-05T03:33:03.127Z,570.00
2023-05-05T03:34:03.095Z,561.00
2023-05-05T03:35:03.053Z,564.00
2023-05-05T03:36:03.125Z,562.00
2023-05-05T03:37:03.091Z,567.00
2023-05-05T03:38:03.102Z,565.00
2023-05-05T03:39:03.101Z,563.00
2023-05-05T03:40:03.122Z,566.00
2023-05-05T03:41:03.109Z,568.00
2023-05-05T03:42:03.130Z,563.00
2023-05-05T03:43:03.123Z,560.00
2023-05-05T03:44:03.133Z,564.00
2023-05-05T03:45:03.144Z,566.00
2023-05-05T03:46:03.146Z,563.00
2023-05-05T03:47:03.118Z,567.00
2023-05-05T03:48:03.143Z,565.00
2023-05-05T03:49:03.129Z,564.00
2023-05-05T03:50:03.159Z,564.00
2023-05-05T03:51:03.163Z,559.00
2023-05-05T03:52:03.153Z,564.00
2023-05-05T03:53:03.159Z,569.00
2023-05-05T03:54:03.166Z,566.00
2023-05-05T03:55:03.209Z,560.00
2023-05-05T03:56:03.212Z,566.00
2023-05-05T03:57:03.199Z,560.00
2023-05-05T03:58:03.227Z,565.00
2023-05-05T03:59:03.220Z,566.00
2023-05-05T04:00:03.223Z,564.00
2023-05-05T04:01:03.214Z,560.00
2023-05-05T04:02:03.241Z,560.00
2023-05-05T04:03:03.246Z,566.00
2023-05-05T04:04:03.244Z,561.00
2023-05-05T04:05:03.201Z,565.00
2023-05-05T04:06:03.212Z,560.00
2023-05-05T04:07:03.208Z,564.00
2023-05-05T04:08:03.239Z,564.00
2023-05-05T04:09:03.207Z,561.00
2023-05-05T04:10:03.240Z,562.00
2023-05-05T04:11:03.243Z,563.00
2023-05-05T04:12:03.250Z,559.00
2023-05-05T04:13:03.234Z,557.00
2023-05-05T04:14:03.205Z,562.00
2023-05-05T04:15:03.197Z,562.00
2023-05-05T04:16:03.285Z,559.00
2023-05-05T04:17:03.222Z,568.00
2023-05-05T04:18:03.240Z,561.00
2023-05-05T04:19:03.249Z,565.00
2023-05-05T04:20:03.259Z,562.00
2023-05-05T04:21:03.254Z,563.00
2023-05-05T04:22:03.262Z,561.00
2023-05-05T04:23:03.261Z,566.00
2023-05-05T04:24:03.231Z,556.00
2023-05-05T04:25:03.278Z,559.00
2023-05-05T04:26:03.269Z,562.00
2023-05-05T04:27:03.213Z,561.00
2023-05-05T04:28:03.224Z,558.00
2023-05-05T04:29:03.258Z,556.00
2023-05-05T04:30:03.269Z,562.00
2023-05-05T04:31:03.327Z,559.00
2023-05-05T04:32:03.257Z,561.00
2023-05-05T04:33:03.352Z,557.00
2023-05-05T04:34:03.221Z,561.00
2023-05-05T04:35:03.260Z,558.00
2023-05-05T04:36:03.262Z,558.00
2023-05-05T04:37:03.211Z,561.00
2023-05-05T04:38:03.244Z,558.00
2023-05-05T04:39:03.272Z,561.00
2023-05-05T04:40:03.220Z,557.00
2023-05-05T04:41:03.236Z,563.00
2023-05-05T04:42:03.246Z,559.00
2023-05-05T04:43:03.226Z,561.00
2023-05-05T04:44:03.235Z,562.00
2023-05-05T04:45:03.245Z,559.00
2023-05-05T04:46:03.257Z,563.00
2023-05-05T04:47:03.216Z,561.00
2023-05-05T04:48:03.268Z,559.00
2023-05-05T04:49:03.234Z,558.00
2023-05-05T04:50:03.233Z,561.00
2023-05-05T04:51:03.215Z,566.00
2023-05-05T04:52:03.224Z,568.00
2023-05-05T04:53:03.184Z,571.00
2023-05-05T04:54:03.199Z,566.00
2023-05-05T04:55:03.182Z,572.00
2023-05-05T04:56:03.231Z,570.00
2023-05-05T04:57:03.198Z,569.00
2023-05-05T04:58:03.194Z,571.00
2023-05-05T04:59:03.212Z,572.00
2023-05-05T05:00:03.183Z,573.00
2023-05-05T05:01:03.191Z,578.00
2023-05-05T05:02:03.204Z,573.00
2023-05-05T05:03:03.338Z,580.00
2023-05-05T05:04:03.336Z,577.00
2023-05-05T05:05:03.178Z,576.00
2023-05-05T05:06:03.242Z,578.00
2023-05-05T05:07:03.218Z,574.00
2023-05-05T05:08:03.222Z,580.00
2023-05-05T05:09:03.216Z,580.00
2023-05-05T05:10:03.198Z,583.00
2023-05-05T05:11:03.237Z,583.00
2023-05-05T05:12:03.170Z,581.00
2023-05-05T05:13:03.232Z,587.00
2023-05-05T05:14:03.174Z,583.00
2023-05-05T05:15:03.193Z,580.00
2023-05-05T05:16:03.243Z,580.00
2023-05-05T05:17:03.214Z,585.00
2023-05-05T05:18:03.213Z,585.00
2023-05-05T05:19:03.170Z,583.00
2023-05-05T05:20:03.203Z,588.00
2023-05-05T05:21:03.231Z,576.00
2023-05-05T05:22:03.190Z,587.00
2023-05-05T05:23:03.774Z,582.00
2023-05-05T05:24:03.225Z,586.00
2023-05-05T05:25:03.243Z,582.00
2023-05-05T05:26:03.229Z,583.00
2023-05-05T05:27:03.193Z,586.00
2023-05-05T05:28:10.252Z,586.00
2023-05-05T05:29:04.213Z,587.00
2023-05-05T05:30:03.182Z,587.00
2023-05-05T05:31:03.205Z,588.00
2023-05-05T05:32:03.225Z,585.00
2023-05-05T05:33:03.157Z,581.00
2023-05-05T05:34:03.131Z,583.00
2023-05-05T05:35:03.136Z,588.00
2023-05-05T05:36:03.170Z,589.00
2023-05-05T05:37:03.139Z,592.00
2023-05-05T05:38:03.137Z,598.00
2023-05-05T05:39:03.098Z,600.00
2023-05-05T05:40:03.105Z,594.00
2023-05-05T05:41:03.320Z,596.00
2023-05-05T05:42:03.097Z,611.00
2023-05-05T05:43:03.085Z,619.00
2023-05-05T05:44:03.089Z,623.00
2023-05-05T05:45:03.090Z,656.00
2023-05-05T05:46:03.066Z,690.00
2023-05-05T05:47:03.080Z,722.00
2023-05-05T05:48:03.088Z,758.00
2023-05-05T05:49:03.105Z,804.00
2023-05-05T05:50:03.154Z,800.00
2023-05-05T05:51:03.188Z,837.00
2023-05-05T05:52:03.290Z,881.00
2023-05-05T05:53:03.348Z,925.00
2023-05-05T05:54:03.382Z,955.00
2023-05-05T05:55:03.433Z,986.00
2023-05-05T05:56:03.479Z,1079.00
2023-05-05T05:57:03.529Z,1080.00
2023-05-05T05:58:03.640Z,1132.00
2023-05-05T05:59:03.698Z,1182.00
2023-05-05T06:00:03.690Z,1194.00
2023-05-05T06:01:03.770Z,1211.00
2023-05-05T06:02:03.837Z,1233.00
2023-05-05T06:03:03.976Z,1255.00
2023-05-05T06:04:03.924Z,1291.00
2023-05-05T06:05:03.893Z,1339.00
2023-05-05T06:06:03.951Z,1331.00
2023-05-05T06:07:04.293Z,1349.00
2023-05-05T06:08:03.962Z,1371.00
2023-05-05T06:09:03.996Z,1415.00
2023-05-05T06:10:14.987Z,1443.00
2023-05-05T06:11:05.000Z,1445.00
2023-05-05T06:12:04.317Z,1451.00
2023-05-05T06:13:04.042Z,1468.00
2023-05-05T06:14:04.004Z,1499.00
2023-05-05T06:15:03.971Z,1541.00
2023-05-05T06:16:04.021Z,1562.00
2023-05-05T06:17:03.966Z,1586.00
2023-05-05T06:18:04.032Z,1606.00
2023-05-05T06:19:03.988Z,1632.00
2023-05-05T06:20:03.948Z,1649.00
2023-05-05T06:21:04.003Z,1663.00
2023-05-05T06:22:03.911Z,1693.00
2023-05-05T06:23:03.927Z,1706.00
2023-05-05T06:24:03.932Z,1727.00
2023-05-05T06:25:03.927Z,1753.00
2023-05-05T06:26:03.898Z,1773.00
2023-05-05T06:27:03.893Z,1791.00
2023-05-05T06:28:03.884Z,1808.00
2023-05-05T06:29:03.902Z,1828.00
2023-05-05T06:30:03.872Z,1849.00
2023-05-05T06:31:03.926Z,1858.00
2023-05-05T06:32:03.848Z,1888.00
2023-05-05T06:33:03.874Z,1888.00
2023-05-05T06:34:03.830Z,1910.00
2023-05-05T06:35:03.850Z,1929.00
2023-05-05T06:36:03.841Z,1930.00
2023-05-05T06:37:04.309Z,1934.00
2023-05-05T06:38:03.828Z,1931.00
2023-05-05T06:39:03.820Z,1945.00
2023-05-05T06:40:03.823Z,1958.00
2023-05-05T06:41:03.810Z,1984.00
2023-05-05T06:42:03.814Z,1973.00
2023-05-05T06:43:03.837Z,1987.00
2023-05-05T06:44:03.876Z,2009.00
2023-05-05T06:45:03.907Z,2020.00
2023-05-05T06:46:03.949Z,2034.00
2023-05-05T06:47:04.411Z,2049.00
2023-05-05T06:48:04.141Z,2067.00
2023-05-05T06:49:04.113Z,2070.00
2023-05-05T06:50:04.180Z,2096.00
2023-05-05T06:51:04.221Z,1928.00
2023-05-05T06:52:04.234Z,1928.00
2023-05-05T06:53:04.240Z,1926.00
2023-05-05T06:54:04.236Z,1922.00
2023-05-05T06:55:04.235Z,1980.00
2023-05-05T06:56:04.251Z,1958.00
2023-05-05T06:57:04.280Z,1964.00
2023-05-05T06:58:04.250Z,1927.00
2023-05-05T06:59:04.369Z,1920.00
2023-05-05T07:00:04.249Z,1922.00
2023-05-05T07:01:04.285Z,1849.00
2023-05-05T07:02:04.320Z,1864.00
2023-05-05T07:03:04.276Z,1904.00
2023-05-05T07:04:04.342Z,1892.00
2023-05-05T07:05:04.297Z,1872.00
2023-05-05T07:06:04.263Z,1859.00
2023-05-05T07:07:04.290Z,1850.00
2023-05-05T07:08:04.271Z,1829.00
2023-05-05T07:09:04.274Z,1826.00
2023-05-05T07:10:04.252Z,1827.00
2023-05-05T07:11:04.251Z,1825.00
2023-05-05T07:12:04.252Z,1757.00
2023-05-05T07:13:04.350Z,1792.00
2023-05-05T07:14:04.282Z,1772.00
2023-05-05T07:15:15.502Z,1661.00
2023-05-05T07:16:05.303Z,1591.00
2023-05-05T07:17:04.263Z,1612.00
2023-05-05T07:18:04.273Z,1655.00
2023-05-05T07:19:04.239Z,1676.00
2023-05-05T07:20:04.252Z,1712.00
2023-05-05T07:21:04.451Z,1721.00
2023-05-05T07:22:04.234Z,1712.00
2023-05-05T07:23:04.225Z,1497.00
2023-05-05T07:24:04.237Z,1467.00
2023-05-05T07:25:04.225Z,1519.00
2023-05-05T07:26:04.208Z,1539.00
2023-05-05T07:27:04.200Z,1366.00
2023-05-05T07:28:04.199Z,1500.00
2023-05-05T07:29:04.184Z,1526.00
2023-05-05T07:30:07.138Z,1401.00
2023-05-05T07:31:05.250Z,1403.00
2023-05-05T07:32:04.240Z,1424.00
2023-05-05T07:33:04.215Z,1450.00
2023-05-05T07:34:04.156Z,1475.00
2023-05-05T07:35:04.162Z,1477.00
2023-05-05T07:36:04.154Z,1486.00
2023-05-05T07:37:04.143Z,1451.00
2023-05-05T07:38:04.137Z,1408.00
2023-05-05T07:39:04.129Z,1388.00
2023-05-05T07:40:04.088Z,1401.00
2023-05-05T07:41:04.084Z,1226.00
2023-05-05T07:42:04.337Z,1320.00
2023-05-05T07:43:04.075Z,1395.00
2023-05-05T07:44:04.078Z,1302.00
2023-05-05T07:45:04.075Z,1314.00
2023-05-05T07:46:04.179Z,1253.00
2023-05-05T07:47:04.467Z,1098.00
2023-05-05T07:48:04.093Z,1157.00
2023-05-05T07:49:04.041Z,1215.00
2023-05-05T07:50:04.036Z,1238.00
2023-05-05T07:51:04.008Z,1230.00
2023-05-05T07:52:04.026Z,1271.00
2023-05-05T07:53:13.554Z,1318.00
2023-05-05T07:54:05.014Z,1320.00
2023-05-05T07:55:04.029Z,1328.00
2023-05-05T07:56:04.010Z,1350.00
2023-05-05T07:57:04.035Z,1386.00
2023-05-05T07:58:03.994Z,1471.00
2023-05-05T07:59:03.993Z,1482.00
2023-05-05T08:00:03.983Z,1461.00
2023-05-05T08:01:03.974Z,1473.00
2023-05-05T08:02:03.951Z,1493.00
2023-05-05T08:03:04.281Z,1501.00
2023-05-05T08:04:04.212Z,1501.00
2023-05-05T08:05:04.125Z,1508.00
2023-05-05T08:06:04.176Z,1503.00
2023-05-05T08:07:04.217Z,1525.00
2023-05-05T08:08:04.281Z,1579.00
2023-05-05T08:09:04.303Z,1565.00
2023-05-05T08:10:04.362Z,1578.00
2023-05-05T08:11:04.418Z,1569.00
2023-05-05T08:12:04.457Z,1570.00
2023-05-05T08:13:04.517Z,1563.00
2023-05-05T08:14:04.544Z,1563.00
2023-05-05T08:15:04.612Z,1515.00
2023-05-05T08:16:04.629Z,1580.00
2023-05-05T08:17:04.664Z,1589.00
2023-05-05T08:18:04.696Z,1592.00
2023-05-05T08:19:09.756Z,1592.00
2023-05-05T08:20:05.720Z,1592.00
2023-05-05T08:21:04.704Z,1592.00
2023-05-05T08:22:04.706Z,1596.00
2023-05-05T08:23:04.697Z,1582.00
2023-05-05T08:24:04.680Z,1588.00
2023-05-05T08:25:04.725Z,1608.00
2023-05-05T08:26:04.660Z,1581.00
2023-05-05T08:27:04.685Z,1599.00
2023-05-05T08:28:04.660Z,1576.00
2023-05-05T08:29:04.628Z,1572.00
2023-05-05T08:30:04.642Z,1601.00
2023-05-05T08:31:04.675Z,1593.00
2023-05-05T08:32:04.652Z,1616.00
2023-05-05T08:33:04.671Z,1638.00
2023-05-05T08:34:04.676Z,1642.00
2023-05-05T08:35:04.754Z,1688.00
2023-05-05T08:36:04.681Z,1681.00
2023-05-05T08:37:04.727Z,1676.00
2023-05-05T08:38:04.729Z,1563.00
2023-05-05T08:39:04.776Z,1445.00
2023-05-05T08:40:04.816Z,1454.00
2023-05-05T08:41:04.857Z,1422.00
2023-05-05T08:42:05.385Z,1460.00
2023-05-05T08:43:04.919Z,1456.00
2023-05-05T08:44:04.948Z,1475.00
2023-05-05T08:45:05.082Z,1388.00
2023-05-05T08:46:05.061Z,1103.00
2023-05-05T08:47:05.142Z,1022.00
2023-05-05T08:48:05.333Z,890.00
2023-05-05T08:49:05.197Z,576.00
2023-05-05T08:50:05.225Z,500.00
2023-05-05T08:51:05.745Z,484.00
2023-05-05T08:52:05.362Z,463.00
2023-05-05T08:53:05.494Z,552.00
2023-05-05T08:54:05.382Z,603.00
2023-05-05T08:55:05.457Z,683.00
2023-05-05T08:56:05.379Z,841.00
2023-05-05T08:57:05.403Z,924.00
2023-05-05T08:58:05.409Z,976.00
2023-05-05T08:59:05.435Z,1006.00
2023-05-05T09:00:05.491Z,1026.00
2023-05-05T09:01:05.589Z,1033.00
2023-05-05T09:02:05.902Z,1077.00
2023-05-05T09:03:05.722Z,1108.00
2023-05-05T09:04:05.748Z,1122.00
2023-05-05T09:05:05.818Z,1153.00
2023-05-05T09:06:05.819Z,1186.00
2023-05-05T09:07:05.935Z,1207.00
2023-05-05T09:08:06.388Z,1226.00
2023-05-05T09:09:05.972Z,1237.00
2023-05-05T09:10:06.035Z,1243.00
2023-05-05T09:11:06.018Z,1259.00
2023-05-05T09:12:06.040Z,1277.00
2023-05-05T09:13:06.205Z,1279.00
2023-05-05T09:14:06.112Z,1294.00
2023-05-05T09:15:06.290Z,1300.00
2023-05-05T09:16:06.188Z,1338.00
2023-05-05T09:17:06.238Z,1348.00
2023-05-05T09:18:06.288Z,1345.00
2023-05-05T09:19:06.272Z,1371.00
2023-05-05T09:20:06.260Z,1418.00
2023-05-05T09:21:06.285Z,1428.00
2023-05-05T09:22:06.329Z,1438.00
2023-05-05T09:23:06.460Z,1446.00
2023-05-05T09:24:08.691Z,1434.00
2023-05-05T09:25:06.793Z,1441.00
2023-05-05T09:26:06.545Z,1468.00
2023-05-05T09:27:06.578Z,1445.00
2023-05-05T09:28:06.899Z,1370.00
2023-05-05T09:29:06.593Z,1441.00
2023-05-05T09:30:06.610Z,1438.00
2023-05-05T09:31:06.735Z,1470.00
2023-05-05T09:32:06.651Z,1481.00
2023-05-05T09:33:06.673Z,1501.00
2023-05-05T09:34:06.683Z,1555.00
2023-05-05T09:35:06.763Z,1559.00
2023-05-05T09:36:06.644Z,1544.00
2023-05-05T09:37:06.671Z,1540.00
2023-05-05T09:38:06.656Z,1540.00
2023-05-05T09:39:06.741Z,1613.00
2023-05-05T09:40:06.627Z,1651.00
2023-05-05T09:41:06.629Z,1666.00
2023-05-05T09:42:06.633Z,1641.00
2023-05-05T09:43:06.922Z,1674.00
2023-05-05T09:44:06.638Z,1686.00
2023-05-05T09:45:06.755Z,1690.00
2023-05-05T09:46:06.679Z,1703.00
2023-05-05T09:47:18.026Z,1740.00
2023-05-05T09:48:07.950Z,1742.00
2023-05-05T09:49:06.635Z,1748.00
2023-05-05T09:50:06.892Z,1765.00
2023-05-05T09:51:06.603Z,1790.00
2023-05-05T09:52:06.609Z,1837.00
2023-05-05T09:53:06.656Z,1844.00
2023-05-05T09:54:06.616Z,1812.00
2023-05-05T09:55:06.746Z,1834.00
2023-05-05T09:56:06.577Z,1814.00
2023-05-05T09:57:06.611Z,1869.00
2023-05-05T09:58:06.943Z,1891.00
2023-05-05T09:59:06.582Z,1897.00
2023-05-05T10:00:06.737Z,1956.00
2023-05-05T10:01:06.595Z,1914.00
2023-05-05T10:02:06.553Z,1916.00
2023-05-05T10:03:06.775Z,1911.00
2023-05-05T10:04:06.647Z,1943.00
2023-05-05T10:05:06.774Z,1942.00
2023-05-05T10:06:06.717Z,1977.00
2023-05-05T10:07:06.771Z,1937.00
2023-05-05T10:08:06.928Z,1930.00
2023-05-05T10:09:06.858Z,1945.00
2023-05-05T10:10:07.053Z,2014.00
2023-05-05T10:11:07.172Z,2031.00
2023-05-05T10:12:06.978Z,2043.00
2023-05-05T10:13:07.080Z,2070.00
2023-05-05T10:14:07.101Z,2046.00
2023-05-05T10:15:07.142Z,2078.00
2023-05-05T10:16:07.214Z,2052.00
2023-05-05T10:17:07.255Z,2072.00
2023-05-05T10:18:08.461Z,2126.00
2023-05-05T10:19:07.374Z,2134.00
2023-05-05T10:20:07.610Z,2172.00
2023-05-05T10:21:07.458Z,2187.00
2023-05-05T10:22:07.545Z,2174.00
2023-05-05T10:23:07.624Z,2160.00
2023-05-05T10:24:07.685Z,2194.00
2023-05-05T10:25:07.732Z,2139.00
2023-05-05T10:26:07.797Z,2140.00
2023-05-05T10:27:07.896Z,2142.00
2023-05-05T10:28:07.907Z,2154.00
2023-05-05T10:29:07.933Z,2153.00
2023-05-05T10:30:08.272Z,2199.00
2023-05-05T10:31:23.860Z,2197.00
2023-05-05T10:32:24.474Z,2197.00
2023-05-05T10:34:08.066Z,2199.00
2023-05-05T10:35:08.062Z,2201.00
2023-05-05T10:36:08.068Z,2209.00
2023-05-05T10:37:08.139Z,2262.00
2023-05-05T10:38:08.101Z,2266.00
2023-05-05T10:39:08.095Z,2290.00
2023-05-05T10:40:08.355Z,2306.00
2023-05-05T10:41:08.211Z,2286.00
2023-05-05T10:42:08.241Z,2309.00
2023-05-05T10:43:08.315Z,2338.00
2023-05-05T10:44:08.420Z,2339.00
2023-05-05T10:45:08.357Z,2291.00
2023-05-05T10:46:08.386Z,2311.00
2023-05-05T10:47:08.411Z,2289.00
2023-05-05T10:48:08.462Z,2238.00
2023-05-05T10:49:09.228Z,2230.00
2023-05-05T10:50:08.790Z,2205.00
2023-05-05T10:51:08.479Z,2176.00
2023-05-05T10:52:08.508Z,2186.00
2023-05-05T10:53:08.530Z,2153.00
2023-05-05T10:54:08.551Z,2197.00
2023-05-05T10:55:08.479Z,2192.00
2023-05-05T10:56:08.488Z,2150.00
2023-05-05T10:57:08.590Z,2176.00
2023-05-05T10:58:08.522Z,2207.00
2023-05-05T10:59:08.686Z,2238.00
2023-05-05T11:00:08.903Z,2203.00
2023-05-05T11:01:08.594Z,2218.00
2023-05-05T11:02:08.573Z,2236.00
2023-05-05T11:03:08.691Z,2164.00
2023-05-05T11:04:08.670Z,2241.00
2023-05-05T11:05:08.593Z,2183.00
2023-05-05T11:06:08.563Z,2203.00
2023-05-05T11:07:10.306Z,2306.00
2023-05-05T11:08:08.934Z,2306.00
2023-05-05T11:09:08.540Z,2312.00
2023-05-05T11:10:08.896Z,2318.00
2023-05-05T11:11:08.528Z,2137.00
2023-05-05T11:12:08.513Z,2190.00
2023-05-05T11:13:08.552Z,2148.00
2023-05-05T11:14:08.511Z,2168.00
2023-05-05T11:15:08.509Z,2081.00
2023-05-05T11:16:08.598Z,2125.00
2023-05-05T11:17:08.469Z,2061.00
2023-05-05T11:18:08.868Z,2107.00
2023-05-05T11:19:08.490Z,2108.00
2023-05-05T11:20:08.659Z,2114.00
2023-05-05T11:21:08.495Z,2045.00
2023-05-05T11:22:08.476Z,2031.00
2023-05-05T11:23:08.500Z,2126.00
2023-05-05T11:24:08.471Z,2078.00
2023-05-05T11:25:08.419Z,2089.00
2023-05-05T11:26:08.454Z,2136.00
2023-05-05T11:27:08.419Z,2193.00
2023-05-05T11:28:08.564Z,2259.00
2023-05-05T11:29:08.956Z,1808.00
2023-05-05T11:30:08.819Z,1949.00
2023-05-05T11:31:08.466Z,2001.00
2023-05-05T11:32:08.391Z,1979.00
2023-05-05T11:33:08.468Z,1921.00
2023-05-05T11:34:08.395Z,1887.00
2023-05-05T11:35:08.368Z,1910.00
2023-05-05T11:36:08.374Z,1919.00
2023-05-05T11:37:08.341Z,1910.00
2023-05-05T11:38:08.352Z,1949.00
2023-05-05T11:39:08.344Z,1886.00
2023-05-05T11:40:08.507Z,1860.00
2023-05-05T11:41:08.347Z,1849.00
2023-05-05T11:42:10.804Z,1854.00
2023-05-05T11:43:08.401Z,1808.00
2023-05-05T11:44:08.335Z,1801.00
2023-05-05T11:45:08.335Z,1760.00
2023-05-05T11:46:08.365Z,1749.00
2023-05-05T11:47:08.365Z,1741.00
2023-05-05T11:48:08.313Z,1739.00
2023-05-05T11:49:08.308Z,1714.00
2023-05-05T11:50:08.558Z,1681.00
2023-05-05T11:51:08.275Z,1662.00
2023-05-05T11:52:08.327Z,1680.00
2023-05-05T11:53:08.249Z,1625.00
2023-05-05T11:54:08.266Z,1590.00
2023-05-05T11:55:08.248Z,1548.00
2023-05-05T11:56:08.244Z,1482.00
2023-05-05T11:57:08.259Z,1390.00
2023-05-05T11:58:08.255Z,1417.00
2023-05-05T11:59:08.221Z,1447.00
2023-05-05T12:00:08.622Z,1456.00
2023-05-05T12:01:08.211Z,1341.00
2023-05-05T12:02:08.189Z,1327.00
2023-05-05T12:03:08.343Z,1363.00
2023-05-05T12:04:08.470Z,1386.00
2023-05-05T12:05:08.173Z,1379.00
2023-05-05T12:06:08.190Z,1343.00
2023-05-05T12:07:08.192Z,1322.00
2023-05-05T12:08:08.197Z,1342.00
2023-05-05T12:09:08.147Z,1365.00
2023-05-05T12:10:08.398Z,1353.00
2023-05-05T12:11:08.160Z,1303.00
2023-05-05T12:12:08.125Z,1278.00
2023-05-05T12:13:08.187Z,1260.00
2023-05-05T12:14:08.138Z,1270.00
2023-05-05T12:15:08.117Z,1256.00
2023-05-05T12:16:08.136Z,1220.00
2023-05-05T12:17:08.098Z,1136.00
2023-05-05T12:18:08.196Z,1116.00